createdAt,value
2019-03-06T00:01:29.737Z,5.41
2019-03-06T00:04:00.393Z,5.37
2019-03-06T00:06:31.138Z,5.27
2019-03-06T00:09:01.803Z,5.18
2019-03-06T00:11:32.243Z,5.11
2019-03-06T00:14:07.963Z,5.07
2019-03-06T00:16:39.127Z,5.05
2019-03-06T00:19:09.723Z,5.02
2019-03-06T00:21:40.136Z,4.97
2019-03-06T00:24:10.428Z,4.96
2019-03-06T00:26:41.430Z,4.96
2019-03-06T00:29:12.001Z,4.88
2019-03-06T00:31:42.406Z,4.96
2019-03-06T00:34:12.916Z,4.96
2019-03-06T00:36:43.264Z,5.01
2019-03-06T00:39:13.909Z,5.00
2019-03-06T00:41:47.291Z,4.99
2019-03-06T00:44:17.561Z,4.97
2019-03-06T00:46:47.957Z,4.98
2019-03-06T00:49:18.566Z,4.94
2019-03-06T00:51:49.353Z,4.91
2019-03-06T00:54:19.764Z,4.98
2019-03-06T00:56:49.963Z,4.97
2019-03-06T00:59:20.478Z,4.97
2019-03-06T01:01:51.343Z,4.98
2019-03-06T01:04:21.761Z,4.97
2019-03-06T01:06:52.073Z,4.94
2019-03-06T01:09:22.721Z,4.91
2019-03-06T01:11:52.929Z,4.93
2019-03-06T01:14:24.099Z,4.92
2019-03-06T01:16:54.406Z,4.88
2019-03-06T01:19:24.642Z,4.82
2019-03-06T01:21:54.939Z,4.82
2019-03-06T01:24:25.174Z,4.80
2019-03-06T01:26:55.450Z,4.76
2019-03-06T01:29:26.326Z,4.76
2019-03-06T01:31:56.579Z,4.78
2019-03-06T01:34:39.239Z,4.81
2019-03-06T01:37:21.890Z,4.80
2019-03-06T01:40:10.026Z,4.83
2019-03-06T01:42:51.430Z,4.87
2019-03-06T01:45:21.733Z,4.86
2019-03-06T01:47:52.281Z,4.88
2019-03-06T01:50:27.222Z,4.87
2019-03-06T01:52:57.476Z,4.87
2019-03-06T01:55:27.634Z,4.87
2019-03-06T01:57:57.890Z,4.86
2019-03-06T02:00:28.419Z,4.84
2019-03-06T02:02:59.047Z,4.84
2019-03-06T02:05:30.670Z,4.83
2019-03-06T02:08:54.331Z,4.80
2019-03-06T02:11:24.981Z,4.80
2019-03-06T02:13:55.205Z,4.76
2019-03-06T02:16:25.439Z,4.71
2019-03-06T02:18:56.375Z,4.68
2019-03-06T02:21:27.340Z,4.70
2019-03-06T02:23:57.994Z,4.71
2019-03-06T02:26:28.580Z,4.64
2019-03-06T02:28:59.437Z,4.66
2019-03-06T02:31:29.647Z,4.64
2019-03-06T02:34:00.347Z,4.61
2019-03-06T02:36:30.892Z,4.54
2019-03-06T02:39:01.556Z,4.57
2019-03-06T02:41:31.769Z,4.53
2019-03-06T02:44:02.310Z,4.48
2019-03-06T02:46:32.527Z,4.49
2019-03-06T02:49:03.230Z,4.50
2019-03-06T02:51:33.658Z,4.52
2019-03-06T02:54:04.215Z,4.53
2019-03-06T02:56:34.469Z,4.51
2019-03-06T02:59:09.891Z,4.48
2019-03-06T03:02:02.972Z,4.50
2019-03-06T03:04:48.264Z,4.51
2019-03-06T03:07:19.760Z,4.50
2019-03-06T03:09:49.976Z,4.46
2019-03-06T03:12:23.775Z,4.46
2019-03-06T03:14:53.494Z,4.42
2019-03-06T03:17:23.750Z,4.40
2019-03-06T03:19:54.211Z,4.40
2019-03-06T03:22:24.925Z,4.35
2019-03-06T03:24:55.620Z,4.38
2019-03-06T03:27:26.455Z,4.37
2019-03-06T03:29:57.202Z,4.32
2019-03-06T03:32:27.445Z,4.31
2019-03-06T03:34:57.986Z,4.29
2019-03-06T03:37:28.372Z,4.28
2019-03-06T03:39:58.596Z,4.31
2019-03-06T03:42:29.456Z,4.33
2019-03-06T03:45:00.131Z,4.32
2019-03-06T03:47:30.473Z,4.33
2019-03-06T03:50:00.720Z,4.32
2019-03-06T03:52:31.018Z,4.34
2019-03-06T03:55:01.492Z,4.32
2019-03-06T03:57:31.894Z,4.31
2019-03-06T04:00:02.118Z,4.33
2019-03-06T04:02:32.560Z,4.36
2019-03-06T04:05:02.786Z,4.39
2019-03-06T04:07:33.001Z,4.44
2019-03-06T04:10:04.441Z,4.42
2019-03-06T04:12:35.601Z,4.39
2019-03-06T04:15:07.044Z,4.32
2019-03-06T04:17:37.853Z,4.35
2019-03-06T04:20:09.734Z,4.28
2019-03-06T04:22:40.060Z,4.29
2019-03-06T04:25:10.411Z,4.33
2019-03-06T04:27:41.243Z,4.34
2019-03-06T04:30:12.643Z,4.33
2019-03-06T04:32:43.169Z,4.33
2019-03-06T04:35:13.497Z,4.36
2019-03-06T04:37:44.174Z,4.34
2019-03-06T04:40:14.896Z,4.35
2019-03-06T04:42:45.227Z,4.36
2019-03-06T04:45:15.496Z,4.36
2019-03-06T04:47:46.080Z,4.36
2019-03-06T04:50:16.346Z,4.37
2019-03-06T04:52:46.992Z,4.36
2019-03-06T04:55:17.350Z,4.38
2019-03-06T04:57:47.595Z,4.38
2019-03-06T05:00:18.404Z,4.42
2019-03-06T05:02:49.477Z,4.42
2019-03-06T05:05:19.658Z,4.45
2019-03-06T05:07:49.866Z,4.47
2019-03-06T05:10:20.677Z,4.49
2019-03-06T05:12:51.460Z,4.50
2019-03-06T05:15:22.109Z,4.47
2019-03-06T05:18:14.265Z,4.45
2019-03-06T05:20:45.068Z,4.49
2019-03-06T05:23:15.735Z,4.45
2019-03-06T05:25:45.953Z,4.44
2019-03-06T05:28:16.443Z,4.43
2019-03-06T05:30:46.958Z,4.43
2019-03-06T05:33:17.205Z,4.45
2019-03-06T05:36:04.296Z,4.40
2019-03-06T05:38:42.668Z,4.41
2019-03-06T05:41:12.961Z,4.42
2019-03-06T05:43:43.327Z,4.43
2019-03-06T05:46:14.356Z,4.43
2019-03-06T05:48:44.691Z,4.40
2019-03-06T05:51:14.953Z,4.37
2019-03-06T05:53:45.161Z,4.39
2019-03-06T05:56:16.545Z,4.38
2019-03-06T05:58:47.048Z,4.35
2019-03-06T06:01:18.079Z,4.38
2019-03-06T06:03:48.700Z,4.38
2019-03-06T06:06:19.268Z,4.43
2019-03-06T06:08:50.075Z,4.43
2019-03-06T06:11:20.802Z,4.37
2019-03-06T06:13:51.544Z,4.41
2019-03-06T06:16:22.652Z,4.42
2019-03-06T06:18:53.165Z,4.34
2019-03-06T06:21:41.336Z,4.35
2019-03-06T06:24:17.677Z,4.36
2019-03-06T06:26:48.563Z,4.39
2019-03-06T06:29:19.475Z,4.43
2019-03-06T06:31:50.169Z,4.47
2019-03-06T06:34:20.801Z,4.52
2019-03-06T06:36:51.252Z,4.53
2019-03-06T06:39:21.671Z,4.54
2019-03-06T06:41:52.160Z,4.59
2019-03-06T06:44:22.571Z,4.60
2019-03-06T06:46:52.861Z,4.60
2019-03-06T06:49:23.119Z,4.59
2019-03-06T06:52:44.848Z,4.57
2019-03-06T06:55:33.955Z,4.54
2019-03-06T06:58:31.611Z,4.53
2019-03-06T07:01:41.375Z,4.53
2019-03-06T07:05:02.699Z,4.56
2019-03-06T07:07:43.700Z,4.64
2019-03-06T07:10:31.959Z,4.68
2019-03-06T07:13:14.235Z,4.72
2019-03-06T07:16:02.158Z,4.72
2019-03-06T07:19:00.316Z,4.70
2019-03-06T07:21:44.520Z,4.72
2019-03-06T07:24:24.883Z,4.68
2019-03-06T07:27:22.267Z,4.69
2019-03-06T07:29:59.520Z,4.72
2019-03-06T07:32:49.099Z,4.76
2019-03-06T07:36:04.242Z,4.75
2019-03-06T07:38:34.581Z,4.78
2019-03-06T07:41:22.785Z,4.77
2019-03-06T07:44:00.340Z,4.86
2019-03-06T07:46:53.150Z,4.93
2019-03-06T07:49:32.927Z,5.04
2019-03-06T07:52:34.630Z,5.16
2019-03-06T07:55:15.642Z,5.16
2019-03-06T07:58:21.631Z,5.25
2019-03-06T08:00:52.158Z,5.30
2019-03-06T08:03:38.781Z,5.43
2019-03-06T08:06:09.043Z,5.49
2019-03-06T08:08:39.821Z,5.53
2019-03-06T08:11:16.503Z,5.60
2019-03-06T08:13:52.473Z,5.67
2019-03-06T08:16:28.423Z,5.76
2019-03-06T08:19:15.026Z,5.82
2019-03-06T08:22:07.030Z,5.88
2019-03-06T08:24:45.282Z,5.91
2019-03-06T08:27:15.624Z,5.92
2019-03-06T08:29:46.099Z,5.95
2019-03-06T08:32:31.126Z,5.93
2019-03-06T08:35:01.807Z,6.03
2019-03-06T08:37:32.365Z,6.12
2019-03-06T08:40:03.366Z,6.17
2019-03-06T08:42:34.510Z,6.25
2019-03-06T08:45:05.759Z,6.30
2019-03-06T08:48:00.734Z,6.29
2019-03-06T08:50:50.309Z,6.31
2019-03-06T08:53:28.870Z,6.32
2019-03-06T08:56:07.994Z,6.37
2019-03-06T08:58:47.510Z,6.37
2019-03-06T09:01:45.449Z,6.33
2019-03-06T09:04:38.144Z,6.35
2019-03-06T09:07:30.809Z,6.30
2019-03-06T09:10:18.445Z,6.38
2019-03-06T09:13:04.423Z,6.33
2019-03-06T09:15:56.442Z,6.33
2019-03-06T09:18:44.892Z,6.38
2019-03-06T09:21:36.910Z,6.41
2019-03-06T09:24:26.972Z,6.47
2019-03-06T09:27:14.686Z,6.56
2019-03-06T09:30:04.376Z,6.58
2019-03-06T09:32:43.939Z,6.51
2019-03-06T09:35:33.167Z,6.43
2019-03-06T09:38:21.148Z,6.47
2019-03-06T09:41:07.741Z,6.55
2019-03-06T09:44:00.179Z,6.52
2019-03-06T09:46:36.720Z,6.46
2019-03-06T09:49:16.589Z,6.53
2019-03-06T09:52:03.700Z,6.53
2019-03-06T09:54:51.789Z,6.61
2019-03-06T09:57:32.073Z,6.65
2019-03-06T10:00:11.186Z,6.68
2019-03-06T10:03:06.768Z,6.70
2019-03-06T10:05:44.906Z,6.63
2019-03-06T10:08:32.806Z,6.65
2019-03-06T10:11:12.699Z,6.55
2019-03-06T10:13:59.858Z,6.58
2019-03-06T10:16:52.086Z,6.55
2019-03-06T10:19:35.856Z,6.63
2019-03-06T10:22:06.330Z,6.75
2019-03-06T10:24:36.554Z,6.74
2019-03-06T10:27:07.517Z,6.77
2019-03-06T10:29:38.380Z,6.81
2019-03-06T10:32:09.141Z,6.82
2019-03-06T10:34:40.155Z,6.81
2019-03-06T10:37:10.679Z,6.73
2019-03-06T10:39:42.271Z,6.72
2019-03-06T10:42:13.368Z,6.86
2019-03-06T10:44:45.137Z,6.85
2019-03-06T10:47:15.398Z,6.90
2019-03-06T10:49:45.620Z,6.78
2019-03-06T10:52:16.176Z,6.69
2019-03-06T10:54:47.124Z,6.76
2019-03-06T10:57:19.195Z,6.78
2019-03-06T10:59:49.555Z,6.73
2019-03-06T11:02:20.108Z,6.81
2019-03-06T11:05:04.501Z,6.71
2019-03-06T11:07:34.839Z,6.70
2019-03-06T11:10:06.823Z,6.74
2019-03-06T11:12:37.053Z,6.81
2019-03-06T11:15:09.045Z,6.86
2019-03-06T11:17:39.192Z,6.78
2019-03-06T11:20:12.834Z,6.85
2019-03-06T11:22:43.066Z,6.79
2019-03-06T11:25:13.696Z,6.76
2019-03-06T11:27:44.616Z,6.85
2019-03-06T11:30:31.305Z,6.90
2019-03-06T11:33:01.526Z,6.95
2019-03-06T11:35:31.868Z,7.07
2019-03-06T11:38:03.570Z,7.15
2019-03-06T11:40:40.034Z,7.28
2019-03-06T11:43:10.862Z,7.23
2019-03-06T11:45:41.270Z,7.31
2019-03-06T11:48:11.659Z,7.38
2019-03-06T11:50:42.444Z,7.45
2019-03-06T11:53:13.541Z,7.45
2019-03-06T11:55:44.180Z,7.43
2019-03-06T11:58:16.444Z,7.48
2019-03-06T12:00:47.641Z,7.50
2019-03-06T12:03:19.469Z,7.58
2019-03-06T12:05:50.634Z,7.59
2019-03-06T12:08:22.096Z,7.64
2019-03-06T12:10:53.341Z,7.72
2019-03-06T12:13:23.848Z,7.76
2019-03-06T12:15:54.063Z,7.83
2019-03-06T12:18:24.852Z,7.89
2019-03-06T12:20:55.702Z,7.98
2019-03-06T12:23:26.216Z,8.03
2019-03-06T12:25:56.784Z,8.06
2019-03-06T12:28:27.011Z,8.11
2019-03-06T12:30:57.761Z,8.16
2019-03-06T12:33:28.747Z,8.18
2019-03-06T12:35:58.956Z,8.13
2019-03-06T12:38:29.107Z,8.11
2019-03-06T12:40:59.941Z,8.15
2019-03-06T12:43:30.566Z,8.21
2019-03-06T12:46:23.915Z,8.14
2019-03-06T12:49:04.245Z,8.23
2019-03-06T12:51:36.375Z,8.20
2019-03-06T12:54:08.000Z,8.24
2019-03-06T12:56:38.844Z,8.26
2019-03-06T12:59:09.308Z,8.24
2019-03-06T13:01:40.355Z,8.24
2019-03-06T13:04:10.974Z,8.25
2019-03-06T13:06:41.775Z,8.26
2019-03-06T13:09:16.931Z,8.36
2019-03-06T13:11:47.493Z,8.34
2019-03-06T13:14:18.201Z,8.31
2019-03-06T13:16:49.198Z,8.33
2019-03-06T13:19:19.773Z,8.31
2019-03-06T13:21:50.670Z,8.33
2019-03-06T13:24:23.262Z,8.36
2019-03-06T13:26:53.778Z,8.30
2019-03-06T13:29:25.803Z,8.28
2019-03-06T13:31:56.344Z,8.32
2019-03-06T13:34:33.931Z,8.29
2019-03-06T13:37:04.166Z,8.22
2019-03-06T13:39:35.806Z,8.22
2019-03-06T13:42:06.576Z,8.19
2019-03-06T13:44:36.784Z,8.18
2019-03-06T13:47:07.410Z,8.16
2019-03-06T13:49:37.615Z,8.21
2019-03-06T13:52:07.838Z,8.26
2019-03-06T13:54:38.036Z,8.24
2019-03-06T13:57:08.950Z,8.30
2019-03-06T13:59:39.779Z,8.28
2019-03-06T14:02:10.031Z,8.30
2019-03-06T14:04:40.196Z,8.33
2019-03-06T14:07:11.111Z,8.41
2019-03-06T14:09:42.097Z,8.46
2019-03-06T14:12:12.775Z,8.50
2019-03-06T14:14:43.692Z,8.55
2019-03-06T14:17:14.171Z,8.59
2019-03-06T14:19:44.903Z,8.66
2019-03-06T14:22:15.431Z,8.75
2019-03-06T14:24:45.967Z,8.80
2019-03-06T14:27:16.177Z,8.84
2019-03-06T14:29:46.721Z,8.95
2019-03-06T14:32:17.111Z,9.03
2019-03-06T14:34:47.869Z,9.07
2019-03-06T14:37:18.157Z,9.08
2019-03-06T14:39:48.415Z,9.11
2019-03-06T14:42:18.663Z,9.12
2019-03-06T14:44:49.467Z,9.11
2019-03-06T14:47:21.072Z,9.15
2019-03-06T14:49:51.725Z,9.18
2019-03-06T14:52:23.183Z,9.24
2019-03-06T14:54:53.444Z,9.24
2019-03-06T14:57:24.193Z,9.26
2019-03-06T14:59:54.890Z,9.34
2019-03-06T15:02:25.817Z,9.39
2019-03-06T15:04:56.093Z,9.38
2019-03-06T15:07:26.906Z,9.35
2019-03-06T15:09:57.795Z,9.37
2019-03-06T15:12:28.294Z,9.41
2019-03-06T15:14:58.850Z,9.43
2019-03-06T15:17:31.989Z,9.49
2019-03-06T15:20:01.671Z,9.51
2019-03-06T15:22:38.597Z,9.50
2019-03-06T15:25:04.326Z,9.57
2019-03-06T15:27:35.128Z,9.63
2019-03-06T15:30:05.553Z,9.68
2019-03-06T15:32:36.127Z,9.71
2019-03-06T15:35:06.960Z,9.73
2019-03-06T15:37:38.573Z,9.74
2019-03-06T15:40:15.507Z,9.75
2019-03-06T15:42:46.650Z,9.79
2019-03-06T15:45:18.406Z,9.77
2019-03-06T15:47:49.500Z,9.79
2019-03-06T15:50:20.056Z,9.86
2019-03-06T15:52:50.919Z,9.82
2019-03-06T15:55:24.080Z,9.80
2019-03-06T15:57:54.427Z,9.83
2019-03-06T16:00:28.163Z,9.82
2019-03-06T16:02:58.741Z,9.84
2019-03-06T16:05:28.943Z,9.81
2019-03-06T16:07:59.298Z,9.79
2019-03-06T16:10:30.026Z,9.74
2019-03-06T16:13:01.634Z,9.70
2019-03-06T16:15:32.106Z,9.73
2019-03-06T16:18:02.941Z,9.74
2019-03-06T16:20:33.694Z,9.77
2019-03-06T16:23:04.490Z,9.77
2019-03-06T16:25:37.288Z,9.76
2019-03-06T16:28:07.230Z,9.74
2019-03-06T16:30:37.786Z,9.82
2019-03-06T16:33:08.127Z,9.83
2019-03-06T16:35:38.392Z,9.84
2019-03-06T16:38:09.741Z,9.83
2019-03-06T16:40:40.089Z,9.87
2019-03-06T16:43:10.382Z,9.82
2019-03-06T16:45:40.888Z,9.88
2019-03-06T16:48:11.115Z,9.87
2019-03-06T16:50:41.408Z,9.86
2019-03-06T16:53:12.215Z,9.92
2019-03-06T16:55:42.507Z,9.92
2019-03-06T16:58:12.961Z,9.91
2019-03-06T17:00:43.897Z,9.91
2019-03-06T17:03:14.491Z,9.86
2019-03-06T17:05:45.343Z,9.80
2019-03-06T17:08:15.974Z,9.76
2019-03-06T17:10:46.414Z,9.73
2019-03-06T17:13:16.926Z,9.70
2019-03-06T17:15:47.699Z,9.64
2019-03-06T17:18:18.557Z,9.63
2019-03-06T17:20:49.402Z,9.59
2019-03-06T17:23:20.564Z,9.54
2019-03-06T17:25:51.703Z,9.54
2019-03-06T17:28:21.876Z,9.53
2019-03-06T17:30:53.006Z,9.55
2019-03-06T17:33:24.580Z,9.54
2019-03-06T17:35:56.350Z,9.56
2019-03-06T17:38:35.305Z,9.52
2019-03-06T17:41:05.798Z,9.55
2019-03-06T17:43:36.334Z,9.56
2019-03-06T17:46:07.138Z,9.55
2019-03-06T17:48:38.125Z,9.52
2019-03-06T17:51:08.354Z,9.52
2019-03-06T17:53:39.478Z,9.47
2019-03-06T17:56:10.162Z,9.44
2019-03-06T17:58:40.350Z,9.40
2019-03-06T18:01:15.091Z,9.37
2019-03-06T18:03:51.741Z,9.36
2019-03-06T18:06:22.961Z,9.26
2019-03-06T18:08:53.909Z,9.29
2019-03-06T18:11:24.212Z,9.23
2019-03-06T18:13:54.560Z,9.18
2019-03-06T18:16:25.513Z,9.14
2019-03-06T18:18:56.412Z,9.12
2019-03-06T18:21:27.430Z,9.06
2019-03-06T18:23:57.961Z,9.05
2019-03-06T18:26:28.204Z,9.00
2019-03-06T18:28:59.834Z,8.97
2019-03-06T18:31:30.961Z,8.98
2019-03-06T18:34:01.611Z,8.93
2019-03-06T18:36:32.693Z,8.96
2019-03-06T18:39:05.172Z,8.96
2019-03-06T18:41:35.602Z,8.93
2019-03-06T18:44:07.527Z,8.95
2019-03-06T18:46:37.780Z,8.92
2019-03-06T18:49:08.353Z,8.92
2019-03-06T18:51:38.938Z,8.92
2019-03-06T18:54:13.323Z,8.93
2019-03-06T18:56:43.465Z,8.93
2019-03-06T18:59:14.183Z,8.94
2019-03-06T19:01:44.477Z,8.91
2019-03-06T19:04:14.981Z,8.93
2019-03-06T19:06:48.049Z,8.92
2019-03-06T19:09:19.861Z,8.91
2019-03-06T19:11:50.603Z,8.91
2019-03-06T19:14:23.252Z,8.92
2019-03-06T19:16:53.766Z,8.91
2019-03-06T19:19:25.307Z,8.92
2019-03-06T19:21:55.934Z,8.91
2019-03-06T19:24:26.370Z,8.90
2019-03-06T19:26:56.605Z,8.87
2019-03-06T19:29:27.165Z,8.87
2019-03-06T19:31:57.413Z,8.86
2019-03-06T19:34:28.122Z,8.84
2019-03-06T19:36:58.934Z,8.85
2019-03-06T19:39:29.480Z,8.86
2019-03-06T19:41:59.883Z,8.82
2019-03-06T19:44:31.267Z,8.80
2019-03-06T19:47:05.098Z,8.81
2019-03-06T19:49:37.277Z,8.82
2019-03-06T19:52:07.867Z,8.80
2019-03-06T19:54:38.362Z,8.81
2019-03-06T19:57:08.817Z,8.79
2019-03-06T19:59:39.036Z,8.81
2019-03-06T20:02:09.302Z,8.80
2019-03-06T20:04:40.990Z,8.80
2019-03-06T20:07:11.246Z,8.82
2019-03-06T20:09:41.785Z,8.84
2019-03-06T20:12:12.806Z,8.84
2019-03-06T20:14:43.175Z,8.86
2019-03-06T20:17:13.783Z,8.87
2019-03-06T20:19:45.055Z,8.88
2019-03-06T20:22:15.587Z,8.90
2019-03-06T20:24:46.067Z,8.91
2019-03-06T20:27:19.532Z,8.89
2019-03-06T20:29:50.509Z,8.91
2019-03-06T20:32:20.701Z,8.89
2019-03-06T20:34:51.414Z,8.92
2019-03-06T20:37:22.194Z,8.93
2019-03-06T20:39:52.440Z,8.91
2019-03-06T20:42:23.394Z,8.90
2019-03-06T20:44:53.897Z,8.90
2019-03-06T20:47:24.746Z,8.87
2019-03-06T20:49:55.309Z,8.88
2019-03-06T20:52:25.688Z,8.88
2019-03-06T20:54:57.170Z,8.89
2019-03-06T20:57:28.839Z,8.91
2019-03-06T20:59:59.955Z,8.90
2019-03-06T21:02:30.700Z,8.94
2019-03-06T21:05:01.316Z,8.92
2019-03-06T21:07:35.717Z,8.92
2019-03-06T21:10:05.648Z,8.92
2019-03-06T21:12:36.794Z,8.93
2019-03-06T21:15:08.988Z,8.93
2019-03-06T21:17:39.271Z,8.96
2019-03-06T21:20:12.623Z,8.96
2019-03-06T21:22:43.563Z,8.98
2019-03-06T21:25:15.649Z,8.98
2019-03-06T21:27:46.922Z,8.96
2019-03-06T21:30:22.135Z,9.01
2019-03-06T21:32:53.283Z,9.02
2019-03-06T21:35:23.580Z,9.02
2019-03-06T21:37:54.065Z,9.04
2019-03-06T21:40:24.269Z,9.04
2019-03-06T21:42:54.820Z,9.06
2019-03-06T21:45:26.841Z,9.06
2019-03-06T21:47:57.807Z,9.06
2019-03-06T21:50:31.106Z,9.07
2019-03-06T21:53:01.957Z,9.04
2019-03-06T21:55:32.793Z,9.07
2019-03-06T21:58:05.216Z,9.07
2019-03-06T22:00:37.644Z,9.05
2019-03-06T22:03:09.128Z,9.04
2019-03-06T22:05:39.278Z,9.02
2019-03-06T22:08:09.925Z,9.03
2019-03-06T22:10:40.351Z,9.04
2019-03-06T22:13:10.845Z,9.04
2019-03-06T22:15:41.404Z,9.05
2019-03-06T22:18:12.620Z,9.07
2019-03-06T22:20:44.025Z,9.06
2019-03-06T22:23:14.872Z,9.02
2019-03-06T22:25:45.448Z,9.05
2019-03-06T22:28:15.709Z,9.02
2019-03-06T22:30:46.265Z,9.03
2019-03-06T22:33:18.405Z,9.04
2019-03-06T22:35:48.736Z,9.08
2019-03-06T22:38:18.958Z,9.10
2019-03-06T22:40:49.243Z,9.06
2019-03-06T22:43:20.036Z,9.06
2019-03-06T22:45:51.157Z,9.03
2019-03-06T22:48:22.233Z,9.07
2019-03-06T22:50:52.421Z,9.11
2019-03-06T22:53:22.803Z,9.12
2019-03-06T22:55:54.221Z,9.14
2019-03-06T22:58:25.199Z,9.10
2019-03-06T23:01:10.600Z,9.11
2019-03-06T23:03:41.121Z,9.16
2019-03-06T23:06:11.711Z,9.19
2019-03-06T23:08:42.331Z,9.22
2019-03-06T23:11:12.932Z,9.25
2019-03-06T23:13:43.125Z,9.23
2019-03-06T23:16:16.470Z,9.26
2019-03-06T23:18:51.774Z,9.33
2019-03-06T23:21:22.353Z,9.38
2019-03-06T23:23:52.761Z,9.43
2019-03-06T23:26:23.100Z,9.44
2019-03-06T23:28:53.434Z,9.48
2019-03-06T23:31:24.076Z,9.53
2019-03-06T23:33:54.779Z,9.53
2019-03-06T23:36:26.253Z,9.55
2019-03-06T23:38:56.799Z,9.57
2019-03-06T23:41:29.256Z,9.66
2019-03-06T23:43:59.866Z,9.68
2019-03-06T23:46:30.104Z,9.68
2019-03-06T23:49:01.027Z,9.68
2019-03-06T23:51:37.398Z,9.68
2019-03-06T23:54:07.802Z,9.70
2019-03-06T23:56:37.980Z,9.69
2019-03-06T23:59:09.011Z,9.66
